Time;durP1;ratioP1;P1;durP2;ratioP2;P2;SDS_P1;SDS_P2;PMS_P1;PMS_P2;Temp;Humidity;BMP_temperature;BMP_pressure;BME280_temperature;BME280_humidity;BME280_pressure;Samples;Min_cycle;Max_cycle;Signal;HPM_P1;HPM_P2
2023/11/13 00:00:57;;;;;;;;;;;14.30;86.70;;;;;;4043564;29;20490;-52
2023/11/13 00:03:38;;;;;;;;;;;14.30;86.80;;;;;;4043716;29;20629;-53
2023/11/13 00:06:19;;;;;;;;;;;14.30;87.60;;;;;;4021110;29;20411;-50
2023/11/13 00:09:02;;;;;;;;;;;14.30;86.80;;;;;;4028053;29;19938;-54
2023/11/13 00:11:43;;;;;;;;;;;14.30;86.80;;;;;;4028398;29;20087;-55
2023/11/13 00:14:25;;;;;;;;;;;14.30;86.80;;;;;;4016661;29;19955;-55
2023/11/13 00:17:05;;;;;;;;;;;14.20;86.80;;;;;;4028405;29;20279;-56
2023/11/13 00:19:47;;;;;;;;;;;14.20;86.80;;;;;;4033985;29;19934;-55
2023/11/13 00:22:28;;;;;;;;;;;14.20;87.70;;;;;;4041518;29;19951;-53
2023/11/13 00:25:10;;;;;;;;;;;14.30;86.80;;;;;;4031591;29;19939;-56
2023/11/13 00:27:51;;;;;;;;;;;14.20;86.80;;;;;;4031257;29;19934;-55
2023/11/13 00:30:32;;;;;;;;;;;14.20;86.80;;;;;;4042867;29;20399;-56
2023/11/13 00:33:12;;;;;;;;;;;14.20;86.90;;;;;;4031218;29;19983;-54
2023/11/13 00:35:53;;;;;;;;;;;14.20;86.80;;;;;;4043165;29;19938;-54
2023/11/13 00:38:34;;;;;;;;;;;14.20;86.80;;;;;;4041746;29;19954;-55
2023/11/13 00:41:17;;;;;;;;;;;14.20;86.80;;;;;;4043242;29;19951;-54
2023/11/13 00:43:59;;;;;;;;;;;14.20;86.90;;;;;;4030992;29;19982;-55
2023/11/13 00:46:40;;;;;;;;;;;14.10;86.80;;;;;;4031585;29;20023;-55
2023/11/13 00:49:21;;;;;;;;;;;14.20;86.90;;;;;;4030990;29;19942;-56
2023/11/13 00:52:02;;;;;;;;;;;14.10;86.90;;;;;;4042624;29;20011;-53
2023/11/13 00:54:43;;;;;;;;;;;14.10;87.00;;;;;;4041273;29;19934;-56
2023/11/13 00:57:25;;;;;;;;;;;14.10;87.00;;;;;;4043314;29;19968;-54
2023/11/13 01:00:08;;;;;;;;;;;14.10;87.00;;;;;;4030993;29;20429;-46
2023/11/13 01:02:49;;;;;;;;;;;14.10;87.10;;;;;;4026640;29;19939;-45
2023/11/13 01:05:30;;;;;;;;;;;14.00;87.00;;;;;;4027747;29;19982;-46
2023/11/13 01:08:11;;;;;;;;;;;14.10;87.10;;;;;;4015883;29;19950;-45
2023/11/13 01:10:52;;;;;;;;;;;14.00;88.10;;;;;;4015975;29;19935;-47
2023/11/13 01:13:36;;;;;;;;;;;14.00;87.20;;;;;;4026756;29;19986;-47
2023/11/13 01:16:18;;;;;;;;;;;14.00;87.30;;;;;;4015811;29;19983;-51
2023/11/13 01:18:59;;;;;;;;;;;14.00;87.40;;;;;;4016259;29;19939;-52
2023/11/13 01:21:40;;;;;;;;;;;14.00;87.50;;;;;;4026905;29;19938;-54
2023/11/13 01:24:21;;;;;;;;;;;14.00;87.60;;;;;;4027105;29;20269;-53
2023/11/13 01:27:01;;;;;;;;;;;13.90;87.50;;;;;;4015389;29;19955;-56
2023/11/13 01:29:44;;;;;;;;;;;13.90;87.70;;;;;;4041029;29;19942;-52
2023/11/13 01:32:25;;;;;;;;;;;13.90;87.70;;;;;;4026957;29;20011;-53
2023/11/13 01:35:06;;;;;;;;;;;13.90;88.60;;;;;;4015910;29;19938;-45
2023/11/13 01:37:46;;;;;;;;;;;13.90;87.80;;;;;;4015066;29;19935;-46
2023/11/13 01:40:27;;;;;;;;;;;13.80;87.80;;;;;;4026671;29;19938;-46
2023/11/13 01:43:15;;;;;;;;;;;13.90;88.70;;;;;;4015066;29;19939;-47
2023/11/13 01:45:58;;;;;;;;;;;13.80;87.90;;;;;;4027375;29;20443;-48
2023/11/13 01:48:39;;;;;;;;;;;13.80;88.80;;;;;;4015203;29;20340;-47
2023/11/13 01:51:20;;;;;;;;;;;13.80;87.80;;;;;;4038585;29;20099;-46
2023/11/13 01:54:02;;;;;;;;;;;13.90;87.50;;;;;;4041678;29;19986;-46
2023/11/13 01:56:44;;;;;;;;;;;13.90;87.10;;;;;;4042223;29;20032;-49
2023/11/13 01:59:26;;;;;;;;;;;14.00;86.60;;;;;;4030239;29;20060;-46
2023/11/13 02:02:09;;;;;;;;;;;14.10;86.20;;;;;;4026946;29;20382;-48
2023/11/13 02:04:50;;;;;;;;;;;14.10;86.60;;;;;;4041549;29;19958;-50
2023/11/13 02:07:31;;;;;;;;;;;14.20;85.10;;;;;;4042288;29;19934;-49
2023/11/13 02:10:14;;;;;;;;;;;14.20;84.80;;;;;;4015057;29;19938;-45
2023/11/13 02:12:55;;;;;;;;;;;14.20;84.90;;;;;;4022865;29;20485;-46
2023/11/13 02:15:37;;;;;;;;;;;14.30;85.10;;;;;;4014608;29;19935;-47
2023/11/13 02:18:19;;;;;;;;;;;14.30;85.00;;;;;;4018430;29;19939;-47
2023/11/13 02:21:00;;;;;;;;;;;14.30;85.00;;;;;;4041942;29;19938;-46
2023/11/13 02:23:42;;;;;;;;;;;14.40;85.20;;;;;;4041601;29;19938;-48
2023/11/13 02:26:24;;;;;;;;;;;14.40;85.80;;;;;;4030629;29;19987;-48
2023/11/13 02:29:05;;;;;;;;;;;14.50;84.90;;;;;;4041605;29;20035;-49
2023/11/13 02:31:52;;;;;;;;;;;14.50;84.90;;;;;;4040933;29;20009;-46
2023/11/13 02:34:34;;;;;;;;;;;14.50;85.60;;;;;;4028475;29;19935;-48
2023/11/13 02:37:15;;;;;;;;;;;14.50;84.60;;;;;;4041511;29;20307;-46
2023/11/13 02:39:57;;;;;;;;;;;14.50;84.40;;;;;;4041268;29;19934;-46
2023/11/13 02:42:38;;;;;;;;;;;14.60;84.00;;;;;;4038963;29;19942;-45
2023/11/13 02:45:19;;;;;;;;;;;14.60;83.90;;;;;;4026024;29;19935;-47
2023/11/13 02:48:00;;;;;;;;;;;14.60;84.80;;;;;;4026120;29;19938;-51
2023/11/13 02:50:42;;;;;;;;;;;14.60;84.10;;;;;;4026757;29;20292;-52
2023/11/13 02:53:22;;;;;;;;;;;14.60;84.30;;;;;;4026745;29;19954;-53
2023/11/13 02:56:05;;;;;;;;;;;14.70;84.50;;;;;;4015084;29;19951;-53
2023/11/13 02:58:45;;;;;;;;;;;14.80;84.20;;;;;;4029939;29;19948;-55
2023/11/13 03:01:26;;;;;;;;;;;14.80;83.90;;;;;;4029413;29;19938;-55
2023/11/13 03:04:06;;;;;;;;;;;14.80;83.70;;;;;;4029407;29;19935;-53
2023/11/13 03:06:47;;;;;;;;;;;14.80;83.50;;;;;;4029323;29;19987;-54
2023/11/13 03:09:28;;;;;;;;;;;14.80;83.90;;;;;;4018044;29;19939;-43
2023/11/13 03:12:11;;;;;;;;;;;14.80;83.80;;;;;;4021508;29;19986;-44
2023/11/13 03:14:52;;;;;;;;;;;14.90;83.70;;;;;;4022771;29;20007;-44
2023/11/13 03:17:33;;;;;;;;;;;14.90;83.50;;;;;;4028225;29;20323;-44
2023/11/13 03:20:14;;;;;;;;;;;14.90;83.40;;;;;;4029473;29;20045;-44
2023/11/13 03:22:55;;;;;;;;;;;15.00;83.20;;;;;;4029304;29;20625;-44
2023/11/13 03:25:35;;;;;;;;;;;15.00;83.00;;;;;;4033758;29;19954;-43
2023/11/13 03:28:17;;;;;;;;;;;15.10;82.90;;;;;;4044265;29;19934;-44
2023/11/13 03:30:58;;;;;;;;;;;15.10;83.40;;;;;;4044116;29;20107;-44
2023/11/13 03:33:39;;;;;;;;;;;15.10;82.50;;;;;;4042985;29;19935;-44
2023/11/13 03:36:20;;;;;;;;;;;15.10;82.40;;;;;;4031905;29;19954;-44
2023/11/13 03:39:01;;;;;;;;;;;15.10;82.30;;;;;;4044176;29;19934;-44
2023/11/13 03:41:41;;;;;;;;;;;15.20;82.30;;;;;;4042864;29;20014;-44
2023/11/13 03:44:23;;;;;;;;;;;15.20;82.20;;;;;;4031787;29;20063;-44
2023/11/13 03:47:04;;;;;;;;;;;15.20;82.10;;;;;;4044347;29;20346;-44
2023/11/13 03:49:46;;;;;;;;;;;15.20;82.00;;;;;;4044146;29;19935;-44
2023/11/13 03:52:27;;;;;;;;;;;15.30;81.90;;;;;;4032686;29;19959;-44
2023/11/13 03:55:08;;;;;;;;;;;15.20;81.70;;;;;;4044392;29;20402;-44
2023/11/13 03:57:49;;;;;;;;;;;15.30;81.60;;;;;;4032600;29;19938;-45
2023/11/13 04:00:32;;;;;;;;;;;15.30;81.60;;;;;;4016796;29;19935;-44
2023/11/13 04:03:13;;;;;;;;;;;15.20;81.50;;;;;;4017152;29;20019;-44
2023/11/13 04:05:54;;;;;;;;;;;15.20;81.70;;;;;;4027819;29;19978;-43
2023/11/13 04:08:35;;;;;;;;;;;15.10;81.70;;;;;;4027646;29;19939;-44
2023/11/13 04:11:16;;;;;;;;;;;15.10;81.90;;;;;;4028433;29;19935;-44
2023/11/13 04:13:57;;;;;;;;;;;15.10;82.90;;;;;;4029468;29;19934;-44
2023/11/13 04:16:39;;;;;;;;;;;15.10;82.00;;;;;;4016880;29;19939;-44
2023/11/13 04:19:20;;;;;;;;;;;15.10;81.90;;;;;;4016873;29;19939;-44
2023/11/13 04:22:01;;;;;;;;;;;15.20;81.80;;;;;;4028387;29;20932;-44
2023/11/13 04:24:42;;;;;;;;;;;15.20;81.80;;;;;;4028562;29;20071;-44
2023/11/13 04:27:23;;;;;;;;;;;15.30;81.50;;;;;;4034956;29;19939;-44
2023/11/13 04:30:03;;;;;;;;;;;15.30;81.30;;;;;;4043305;29;21001;-42
2023/11/13 04:32:46;;;;;;;;;;;15.30;81.10;;;;;;4027964;29;20028;-43
2023/11/13 04:35:28;;;;;;;;;;;15.30;81.10;;;;;;4029953;29;24098;-44
2023/11/13 04:38:09;;;;;;;;;;;15.30;80.90;;;;;;4043748;29;19939;-43
2023/11/13 04:40:50;;;;;;;;;;;15.40;80.90;;;;;;4043304;29;20408;-42
2023/11/13 04:43:31;;;;;;;;;;;15.30;81.60;;;;;;4044007;29;20406;-42
2023/11/13 04:46:12;;;;;;;;;;;15.40;81.50;;;;;;4026935;29;20442;-42
2023/11/13 04:48:55;;;;;;;;;;;15.30;80.60;;;;;;4038879;29;20022;-44
2023/11/13 04:51:35;;;;;;;;;;;15.30;80.60;;;;;;4031738;29;19938;-44
2023/11/13 04:54:16;;;;;;;;;;;15.20;80.60;;;;;;4027672;29;20071;-43
2023/11/13 04:56:57;;;;;;;;;;;15.20;80.70;;;;;;4025644;29;20063;-44
2023/11/13 04:59:38;;;;;;;;;;;15.10;80.80;;;;;;4027275;29;19938;-44
2023/11/13 05:02:19;;;;;;;;;;;15.10;81.00;;;;;;4027860;29;20394;-45
2023/11/13 05:05:01;;;;;;;;;;;15.00;81.20;;;;;;4028394;29;19939;-42
2023/11/13 05:07:41;;;;;;;;;;;15.00;81.40;;;;;;4027748;29;20291;-44
2023/11/13 05:10:22;;;;;;;;;;;15.00;81.50;;;;;;4027594;29;19934;-44
2023/11/13 05:13:03;;;;;;;;;;;15.10;81.30;;;;;;4038750;29;19934;-44
2023/11/13 05:15:44;;;;;;;;;;;15.20;81.10;;;;;;4027701;29;19939;-44
2023/11/13 05:18:24;;;;;;;;;;;15.20;80.80;;;;;;4027591;29;20043;-44
2023/11/13 05:21:06;;;;;;;;;;;15.20;80.40;;;;;;4026558;29;19943;-44
2023/11/13 05:23:48;;;;;;;;;;;15.30;80.40;;;;;;4027529;29;19939;-45
2023/11/13 05:26:30;;;;;;;;;;;15.30;80.40;;;;;;4024484;29;20283;-44
2023/11/13 05:29:11;;;;;;;;;;;15.30;80.10;;;;;;4015694;29;19934;-44
2023/11/13 05:31:52;;;;;;;;;;;15.30;80.90;;;;;;4026902;29;19938;-44
2023/11/13 05:34:33;;;;;;;;;;;15.40;79.90;;;;;;4024632;29;19939;-44
2023/11/13 05:37:16;;;;;;;;;;;15.30;80.60;;;;;;4027231;29;20079;-44
2023/11/13 05:39:56;;;;;;;;;;;15.40;79.70;;;;;;4027462;29;19935;-44
2023/11/13 05:42:37;;;;;;;;;;;15.40;79.10;;;;;;4027498;29;19939;-44
2023/11/13 05:45:17;;;;;;;;;;;15.40;78.80;;;;;;4027113;29;20011;-44
2023/11/13 05:47:59;;;;;;;;;;;15.40;78.90;;;;;;4026650;29;20071;-45
2023/11/13 05:50:39;;;;;;;;;;;15.40;79.00;;;;;;4026597;29;19938;-44
2023/11/13 05:53:21;;;;;;;;;;;15.40;79.20;;;;;;4026029;29;19934;-44
2023/11/13 05:56:03;;;;;;;;;;;15.40;79.30;;;;;;4026833;29;20072;-45
2023/11/13 05:58:44;;;;;;;;;;;15.30;79.30;;;;;;4026793;29;20053;-44
2023/11/13 06:01:31;;;;;;;;;;;15.30;79.40;;;;;;4026675;29;19988;-44
2023/11/13 06:04:12;;;;;;;;;;;15.30;79.40;;;;;;4027058;29;19935;-44
2023/11/13 06:06:52;;;;;;;;;;;15.30;79.60;;;;;;4027069;29;20427;-44
2023/11/13 06:09:34;;;;;;;;;;;15.20;79.80;;;;;;4026650;29;19979;-44
2023/11/13 06:12:15;;;;;;;;;;;15.20;79.80;;;;;;4025714;29;19935;-44
2023/11/13 06:14:56;;;;;;;;;;;15.20;79.30;;;;;;4026148;29;20297;-44
2023/11/13 06:17:36;;;;;;;;;;;15.20;80.30;;;;;;4041524;29;19939;-45
2023/11/13 06:20:19;;;;;;;;;;;15.10;79.00;;;;;;4042412;29;20075;-44
2023/11/13 06:23:02;;;;;;;;;;;15.00;79.00;;;;;;4030359;29;19938;-44
2023/11/13 06:25:44;;;;;;;;;;;15.00;79.20;;;;;;4026991;29;20497;-44
2023/11/13 06:28:27;;;;;;;;;;;14.90;79.70;;;;;;4016618;29;19935;-44
2023/11/13 06:31:08;;;;;;;;;;;14.90;79.90;;;;;;4026364;29;19935;-43
2023/11/13 06:33:49;;;;;;;;;;;14.80;80.00;;;;;;4029593;29;19935;-44
2023/11/13 06:36:30;;;;;;;;;;;14.80;79.80;;;;;;4044077;29;19973;-44
2023/11/13 06:39:11;;;;;;;;;;;14.80;80.10;;;;;;4033454;29;20122;-43
2023/11/13 06:41:54;;;;;;;;;;;14.80;80.50;;;;;;4044918;29;19934;-44
2023/11/13 06:44:34;;;;;;;;;;;14.80;81.00;;;;;;4033383;29;20075;-44
2023/11/13 06:47:16;;;;;;;;;;;14.90;80.90;;;;;;4043414;29;19955;-44
2023/11/13 06:49:57;;;;;;;;;;;14.90;80.70;;;;;;4043938;29;19935;-44
2023/11/13 06:52:38;;;;;;;;;;;15.00;80.60;;;;;;4021973;29;20105;-44
2023/11/13 06:55:19;;;;;;;;;;;15.00;80.50;;;;;;4044834;29;19934;-44
2023/11/13 06:58:01;;;;;;;;;;;15.10;80.30;;;;;;4042025;29;19934;-44
2023/11/13 07:00:42;;;;;;;;;;;15.10;80.10;;;;;;4044683;29;19957;-44
2023/11/13 07:03:22;;;;;;;;;;;15.10;79.90;;;;;;4031813;29;20358;-44
2023/11/13 07:06:03;;;;;;;;;;;15.10;80.80;;;;;;4040474;29;20040;-44
2023/11/13 07:08:44;;;;;;;;;;;15.10;79.70;;;;;;4028668;29;20340;-44
2023/11/13 07:11:25;;;;;;;;;;;15.20;79.40;;;;;;4040382;29;20381;-44
2023/11/13 07:14:07;;;;;;;;;;;15.30;78.90;;;;;;4044126;29;19987;-44
2023/11/13 07:16:48;;;;;;;;;;;15.40;78.00;;;;;;4034227;29;19935;-51
2023/11/13 07:19:33;;;;;;;;;;;15.40;77.90;;;;;;4028911;29;19939;-44
2023/11/13 07:22:14;;;;;;;;;;;15.50;77.70;;;;;;4028559;29;19939;-44
2023/11/13 07:24:55;;;;;;;;;;;15.50;77.70;;;;;;4028846;29;19939;-44
2023/11/13 07:27:35;;;;;;;;;;;15.50;77.00;;;;;;4028615;29;20088;-44
2023/11/13 07:30:17;;;;;;;;;;;15.50;76.60;;;;;;4028935;29;19950;-44
2023/11/13 07:32:59;;;;;;;;;;;15.50;76.20;;;;;;4029296;29;19939;-44
2023/11/13 07:35:40;;;;;;;;;;;15.50;76.40;;;;;;4040729;29;19978;-44
2023/11/13 07:38:21;;;;;;;;;;;15.40;76.00;;;;;;4044823;29;19990;-44
2023/11/13 07:41:02;;;;;;;;;;;15.30;75.70;;;;;;4044439;29;19943;-45
2023/11/13 07:43:43;;;;;;;;;;;15.30;75.80;;;;;;4031224;29;19938;-45
2023/11/13 07:46:25;;;;;;;;;;;15.30;75.70;;;;;;4028973;29;20393;-45
2023/11/13 07:49:08;;;;;;;;;;;15.40;74.50;;;;;;4029005;29;19938;-43
2023/11/13 07:51:49;;;;;;;;;;;15.50;73.60;;;;;;4028575;29;19942;-44
2023/11/13 07:54:29;;;;;;;;;;;15.50;72.60;;;;;;4021040;29;19938;-44
2023/11/13 07:57:11;;;;;;;;;;;15.50;72.10;;;;;;4043764;29;19934;-45
2023/11/13 07:59:53;;;;;;;;;;;15.40;72.10;;;;;;4043515;29;20394;-45
2023/11/13 08:02:36;;;;;;;;;;;15.40;72.00;;;;;;4028509;29;19938;-45
2023/11/13 08:05:17;;;;;;;;;;;15.40;71.80;;;;;;4041898;29;20390;-44
2023/11/13 08:08:01;;;;;;;;;;;15.40;71.70;;;;;;4032976;29;19955;-44
2023/11/13 08:10:41;;;;;;;;;;;15.30;71.70;;;;;;4030759;29;20339;-45
2023/11/13 08:13:23;;;;;;;;;;;15.30;71.80;;;;;;4027867;29;19938;-44
2023/11/13 08:16:05;;;;;;;;;;;15.20;72.00;;;;;;4032201;29;19950;-44
2023/11/13 08:18:47;;;;;;;;;;;15.10;72.50;;;;;;4032920;29;20340;-44
2023/11/13 08:21:30;;;;;;;;;;;15.10;72.40;;;;;;4029420;29;19935;-45
2023/11/13 08:24:11;;;;;;;;;;;15.10;72.50;;;;;;4027350;29;19992;-45
2023/11/13 08:26:52;;;;;;;;;;;15.00;72.40;;;;;;4028291;29;19991;-44
2023/11/13 08:29:33;;;;;;;;;;;15.00;72.80;;;;;;4035526;29;19934;-44
2023/11/13 08:32:17;;;;;;;;;;;15.00;73.00;;;;;;4041126;29;19934;-45
2023/11/13 08:35:00;;;;;;;;;;;14.90;73.00;;;;;;4042974;29;20375;-44
2023/11/13 08:37:43;;;;;;;;;;;15.00;73.00;;;;;;4042807;29;20090;-45
2023/11/13 08:40:24;;;;;;;;;;;15.00;73.10;;;;;;4039957;29;19938;-43
2023/11/13 08:43:10;;;;;;;;;;;15.00;73.50;;;;;;4012489;29;19934;-44
2023/11/13 08:45:52;;;;;;;;;;;15.00;73.70;;;;;;4027562;29;19934;-45
2023/11/13 08:48:38;;;;;;;;;;;15.10;73.60;;;;;;4026566;29;19935;-44
2023/11/13 08:51:24;;;;;;;;;;;15.00;74.60;;;;;;4030123;29;20401;-45
2023/11/13 08:54:05;;;;;;;;;;;15.10;74.20;;;;;;4027477;29;20046;-44
2023/11/13 08:56:50;;;;;;;;;;;15.10;74.00;;;;;;4038382;29;19998;-44
2023/11/13 08:59:30;;;;;;;;;;;15.10;74.10;;;;;;4025768;29;19935;-45
2023/11/13 09:02:11;;;;;;;;;;;15.10;74.80;;;;;;4015559;29;19950;-45
2023/11/13 09:04:52;;;;;;;;;;;15.10;73.90;;;;;;4015855;29;20280;-44
2023/11/13 09:07:34;;;;;;;;;;;15.10;74.00;;;;;;4026964;29;20607;-45
2023/11/13 09:10:16;;;;;;;;;;;15.00;74.20;;;;;;4026568;29;20452;-44
2023/11/13 09:12:58;;;;;;;;;;;15.00;74.30;;;;;;4015732;29;19934;-44
2023/11/13 09:15:40;;;;;;;;;;;15.00;74.20;;;;;;4026891;29;19969;-45
2023/11/13 09:18:26;;;;;;;;;;;15.00;74.20;;;;;;4015594;29;19994;-45
2023/11/13 09:21:07;;;;;;;;;;;15.00;74.20;;;;;;4039735;29;20342;-45
2023/11/13 09:23:49;;;;;;;;;;;15.00;75.20;;;;;;4042108;29;19934;-46
2023/11/13 09:26:30;;;;;;;;;;;14.90;74.40;;;;;;4028900;29;19938;-45
2023/11/13 09:29:11;;;;;;;;;;;14.90;74.50;;;;;;4033378;29;20274;-45
2023/11/13 09:31:52;;;;;;;;;;;14.90;74.90;;;;;;4042286;29;19938;-46
2023/11/13 09:34:33;;;;;;;;;;;14.90;74.40;;;;;;4042612;29;19935;-46
2023/11/13 09:37:15;;;;;;;;;;;14.90;74.30;;;;;;4041918;29;20401;-45
2023/11/13 09:39:58;;;;;;;;;;;14.90;74.20;;;;;;4034954;29;19938;-45
2023/11/13 09:42:38;;;;;;;;;;;14.90;74.10;;;;;;4035235;29;20067;-45
2023/11/13 09:45:22;;;;;;;;;;;15.00;74.00;;;;;;4035361;29;19938;-45
2023/11/13 09:48:05;;;;;;;;;;;15.00;74.30;;;;;;4024789;29;20042;-45
2023/11/13 09:50:46;;;;;;;;;;;15.00;74.10;;;;;;4027787;29;19935;-45
2023/11/13 09:53:28;;;;;;;;;;;15.00;74.40;;;;;;4023950;29;19979;-44
2023/11/13 09:56:15;;;;;;;;;;;14.90;74.90;;;;;;4027835;29;20387;-44
2023/11/13 09:58:57;;;;;;;;;;;15.00;74.90;;;;;;4018340;29;20307;-44
2023/11/13 10:01:39;;;;;;;;;;;15.00;75.70;;;;;;4033922;29;19970;-43
2023/11/13 10:04:20;;;;;;;;;;;15.00;74.30;;;;;;4038665;29;20033;-45
2023/11/13 10:07:02;;;;;;;;;;;14.90;74.40;;;;;;4038305;29;19935;-43
2023/11/13 10:09:59;;;;;;;;;;;14.90;74.70;;;;;;4038180;29;19946;-44
2023/11/13 10:12:41;;;;;;;;;;;14.80;74.60;;;;;;4023836;29;19963;-45
2023/11/13 10:15:25;;;;;;;;;;;14.80;74.80;;;;;;4034718;29;19939;-44
2023/11/13 10:18:06;;;;;;;;;;;14.80;74.80;;;;;;4024428;29;20068;-48
2023/11/13 10:20:49;;;;;;;;;;;14.80;75.20;;;;;;4038683;29;20052;-45
2023/11/13 10:23:34;;;;;;;;;;;14.80;75.50;;;;;;4026176;29;19938;-45
2023/11/13 10:26:16;;;;;;;;;;;14.80;75.30;;;;;;4025590;29;19999;-44
2023/11/13 10:29:00;;;;;;;;;;;14.80;74.80;;;;;;4028494;29;19982;-44
2023/11/13 10:31:44;;;;;;;;;;;14.80;74.70;;;;;;4024994;29;20073;-44
2023/11/13 10:34:40;;;;;;;;;;;14.80;74.60;;;;;;4019463;29;20003;-45
2023/11/13 10:37:21;;;;;;;;;;;14.80;74.50;;;;;;4037455;29;19935;-44
2023/11/13 10:40:02;;;;;;;;;;;14.80;74.60;;;;;;4038527;29;19938;-44
2023/11/13 10:42:50;;;;;;;;;;;14.80;75.60;;;;;;4038784;29;19998;-44
2023/11/13 10:45:32;;;;;;;;;;;14.80;74.80;;;;;;4025082;29;19955;-45
2023/11/13 10:48:14;;;;;;;;;;;14.80;75.30;;;;;;4030434;29;20414;-45
2023/11/13 10:50:55;;;;;;;;;;;14.80;75.30;;;;;;4034585;29;19939;-45
2023/11/13 10:53:39;;;;;;;;;;;14.80;75.70;;;;;;4038376;29;19986;-46
2023/11/13 10:56:20;;;;;;;;;;;14.80;75.40;;;;;;4032590;29;19968;-45
2023/11/13 10:59:02;;;;;;;;;;;14.90;75.50;;;;;;4034927;29;19937;-45
2023/11/13 11:01:47;;;;;;;;;;;14.90;75.40;;;;;;4038493;29;20268;-45
2023/11/13 11:04:29;;;;;;;;;;;15.00;75.30;;;;;;4033375;29;20076;-46
2023/11/13 11:07:13;;;;;;;;;;;15.00;75.00;;;;;;4033078;29;19938;-45
2023/11/13 11:09:56;;;;;;;;;;;15.00;74.90;;;;;;4011664;29;20028;-45
2023/11/13 11:12:39;;;;;;;;;;;14.90;74.90;;;;;;4038750;29;19939;-45
2023/11/13 11:15:43;;;;;;;;;;;14.90;75.00;;;;;;4028230;29;19935;-46
2023/11/13 11:18:28;;;;;;;;;;;14.90;75.00;;;;;;4009566;29;19939;-45
2023/11/13 11:21:15;;;;;;;;;;;14.90;75.20;;;;;;4039060;29;20039;-45
2023/11/13 11:23:58;;;;;;;;;;;14.90;75.30;;;;;;4028999;29;19938;-45
2023/11/13 11:26:52;;;;;;;;;;;14.90;75.30;;;;;;4015889;29;20465;-45
2023/11/13 11:29:34;;;;;;;;;;;14.80;75.50;;;;;;4041097;29;19939;-45
2023/11/13 11:32:19;;;;;;;;;;;14.80;75.80;;;;;;4029471;29;19982;-45
2023/11/13 11:35:02;;;;;;;;;;;14.70;76.00;;;;;;4033463;29;19942;-46
2023/11/13 11:38:03;;;;;;;;;;;14.70;76.30;;;;;;4032864;29;19943;-45
2023/11/13 11:40:44;;;;;;;;;;;14.60;76.40;;;;;;4021604;29;19983;-45
2023/11/13 11:43:29;;;;;;;;;;;14.60;76.80;;;;;;4033487;29;19941;-45
2023/11/13 11:46:11;;;;;;;;;;;14.50;77.00;;;;;;4027524;29;20538;-45
2023/11/13 11:48:52;;;;;;;;;;;14.40;77.30;;;;;;4029898;29;20096;-45
2023/11/13 11:51:35;;;;;;;;;;;14.40;77.60;;;;;;4029375;29;20280;-44
2023/11/13 11:54:16;;;;;;;;;;;14.30;78.00;;;;;;4029805;29;19935;-44
2023/11/13 11:56:59;;;;;;;;;;;14.20;78.20;;;;;;4033211;29;19981;-45
2023/11/13 11:59:42;;;;;;;;;;;14.10;78.60;;;;;;4040232;29;19955;-45
2023/11/13 12:02:24;;;;;;;;;;;14.10;79.30;;;;;;4041137;29;19938;-45
2023/11/13 12:05:07;;;;;;;;;;;14.10;79.70;;;;;;4025621;29;19954;-46
2023/11/13 12:07:50;;;;;;;;;;;14.20;80.00;;;;;;4024849;29;19982;-46
2023/11/13 12:10:32;;;;;;;;;;;14.20;79.90;;;;;;4024816;29;19939;-46
2023/11/13 12:13:14;;;;;;;;;;;14.20;80.00;;;;;;4037760;29;19942;-45
2023/11/13 12:15:55;;;;;;;;;;;14.20;80.20;;;;;;4025802;29;20607;-45
2023/11/13 12:18:38;;;;;;;;;;;14.20;80.30;;;;;;4028779;29;19982;-44
2023/11/13 12:21:19;;;;;;;;;;;14.20;80.40;;;;;;4036485;29;19935;-45
2023/11/13 12:24:02;;;;;;;;;;;14.20;81.10;;;;;;4037162;29;20394;-45
2023/11/13 12:26:44;;;;;;;;;;;14.30;82.30;;;;;;4038663;29;19943;-45
2023/11/13 12:29:25;;;;;;;;;;;14.30;82.30;;;;;;4034583;29;19939;-45
2023/11/13 12:32:08;;;;;;;;;;;14.50;82.20;;;;;;4031058;29;19938;-46
2023/11/13 12:34:55;;;;;;;;;;;14.50;81.60;;;;;;4024608;29;19950;-45
2023/11/13 12:37:36;;;;;;;;;;;14.60;81.10;;;;;;4035932;29;19943;-46
2023/11/13 12:40:21;;;;;;;;;;;14.70;80.90;;;;;;4023018;29;20079;-45
2023/11/13 12:43:03;;;;;;;;;;;14.70;80.70;;;;;;4033219;29;19938;-45
2023/11/13 12:45:45;;;;;;;;;;;14.80;80.60;;;;;;4027536;29;19935;-44
2023/11/13 12:48:26;;;;;;;;;;;14.80;80.40;;;;;;4038678;29;19938;-45
2023/11/13 12:51:09;;;;;;;;;;;14.80;81.20;;;;;;4034105;29;19938;-43
2023/11/13 12:53:53;;;;;;;;;;;14.80;82.70;;;;;;4035656;29;19961;-43
2023/11/13 12:56:37;;;;;;;;;;;14.80;83.40;;;;;;4018223;29;19938;-44
2023/11/13 12:59:20;;;;;;;;;;;14.90;83.70;;;;;;4018167;29;19934;-43
2023/11/13 13:02:02;;;;;;;;;;;14.90;83.60;;;;;;4038410;29;20011;-44
2023/11/13 13:04:43;;;;;;;;;;;14.90;83.30;;;;;;4021737;29;19946;-43
2023/11/13 13:07:24;;;;;;;;;;;14.90;83.20;;;;;;4026500;29;20141;-44
2023/11/13 13:10:11;;;;;;;;;;;14.90;83.20;;;;;;4016480;29;19983;-44
2023/11/13 13:12:53;;;;;;;;;;;14.90;83.50;;;;;;4026057;29;19950;-44
2023/11/13 13:15:35;;;;;;;;;;;14.90;83.70;;;;;;4038721;29;19954;-44
2023/11/13 13:18:16;;;;;;;;;;;14.90;83.80;;;;;;4019532;29;19954;-44
2023/11/13 13:20:57;;;;;;;;;;;14.90;84.00;;;;;;4036979;29;20094;-44
2023/11/13 13:23:38;;;;;;;;;;;14.90;84.30;;;;;;4025770;29;20447;-45
2023/11/13 13:26:20;;;;;;;;;;;14.90;84.30;;;;;;4025251;29;19943;-44
2023/11/13 13:29:04;;;;;;;;;;;14.90;84.10;;;;;;4026133;29;19934;-44
2023/11/13 13:31:45;;;;;;;;;;;15.00;84.00;;;;;;4033674;29;19939;-43
2023/11/13 13:34:26;;;;;;;;;;;15.00;84.10;;;;;;4028376;29;19942;-44
2023/11/13 13:37:07;;;;;;;;;;;15.00;84.10;;;;;;4028482;29;19954;-44
2023/11/13 13:39:50;;;;;;;;;;;15.10;84.00;;;;;;4029840;29;20522;-45
2023/11/13 13:42:30;;;;;;;;;;;15.10;84.00;;;;;;4032467;29;20055;-45
2023/11/13 13:45:18;;;;;;;;;;;15.10;83.90;;;;;;4017314;29;19939;-46
2023/11/13 13:48:01;;;;;;;;;;;15.10;84.10;;;;;;4025434;29;20362;-44
2023/11/13 13:50:42;;;;;;;;;;;15.10;84.10;;;;;;4034614;29;20010;-44
2023/11/13 13:53:26;;;;;;;;;;;15.10;83.90;;;;;;4028423;29;19948;-44
2023/11/13 13:56:12;;;;;;;;;;;15.20;84.10;;;;;;4021859;29;19939;-45
2023/11/13 13:58:53;;;;;;;;;;;15.20;84.20;;;;;;4024822;29;19954;-46
2023/11/13 14:01:36;;;;;;;;;;;15.20;84.40;;;;;;4026560;29;19935;-45
2023/11/13 14:04:17;;;;;;;;;;;15.20;84.40;;;;;;4015407;29;20151;-44
2023/11/13 14:06:58;;;;;;;;;;;15.30;84.50;;;;;;4012632;29;19935;-43
2023/11/13 14:09:43;;;;;;;;;;;15.40;84.90;;;;;;4023324;29;19939;-44
2023/11/13 14:12:29;;;;;;;;;;;15.40;84.70;;;;;;4024797;29;20439;-50
2023/11/13 14:15:11;;;;;;;;;;;15.50;84.50;;;;;;4024660;29;19939;-44
2023/11/13 14:17:54;;;;;;;;;;;15.50;84.30;;;;;;4033195;29;19938;-43
2023/11/13 14:20:35;;;;;;;;;;;15.50;84.30;;;;;;4039305;29;19938;-44
2023/11/13 14:23:16;;;;;;;;;;;15.60;84.50;;;;;;4024443;29;19939;-45
2023/11/13 14:25:57;;;;;;;;;;;15.60;84.30;;;;;;4035125;29;20897;-44
2023/11/13 14:28:38;;;;;;;;;;;15.60;84.60;;;;;;4034412;29;19954;-45
2023/11/13 14:31:19;;;;;;;;;;;15.60;84.70;;;;;;4034973;29;20464;-44
2023/11/13 14:34:02;;;;;;;;;;;15.50;85.10;;;;;;4028265;29;19935;-53
2023/11/13 14:36:44;;;;;;;;;;;15.60;85.70;;;;;;4025867;29;20052;-51
2023/11/13 14:39:27;;;;;;;;;;;15.50;85.80;;;;;;4028825;29;19983;-53
2023/11/13 14:42:10;;;;;;;;;;;15.50;86.20;;;;;;4021120;29;20123;-43
2023/11/13 14:44:51;;;;;;;;;;;15.50;86.60;;;;;;4024600;29;19939;-44
2023/11/13 14:47:37;;;;;;;;;;;15.60;87.10;;;;;;4038169;29;19994;-44
2023/11/13 14:50:20;;;;;;;;;;;15.60;87.00;;;;;;4020824;29;20796;-44
2023/11/13 14:53:03;;;;;;;;;;;15.60;87.90;;;;;;4015916;29;19934;-43
2023/11/13 14:55:44;;;;;;;;;;;15.50;87.40;;;;;;4034972;29;20015;-51
2023/11/13 14:58:24;;;;;;;;;;;15.60;87.90;;;;;;4029241;29;19935;-53
2023/11/13 15:01:05;;;;;;;;;;;15.60;87.80;;;;;;4031930;29;19938;-52
2023/11/13 15:03:47;;;;;;;;;;;15.70;88.10;;;;;;4021028;29;20268;-53
2023/11/13 15:06:30;;;;;;;;;;;15.70;88.20;;;;;;4034412;29;19942;-51
2023/11/13 15:09:11;;;;;;;;;;;15.70;88.60;;;;;;4037258;29;20383;-54
2023/11/13 15:11:52;;;;;;;;;;;15.70;88.10;;;;;;4043971;29;19939;-43
2023/11/13 15:14:33;;;;;;;;;;;15.70;87.80;;;;;;4044191;29;20014;-51
2023/11/13 15:17:13;;;;;;;;;;;15.60;87.80;;;;;;4043783;29;19961;-43
2023/11/13 15:19:55;;;;;;;;;;;15.60;87.90;;;;;;4044744;29;19938;-43
2023/11/13 15:22:37;;;;;;;;;;;15.60;88.30;;;;;;4044626;29;19973;-44
2023/11/13 15:25:34;;;;;;;;;;;15.60;88.70;;;;;;4043304;29;19986;-44
2023/11/13 15:28:15;;;;;;;;;;;15.70;88.40;;;;;;4043241;29;19938;-53
2023/11/13 15:30:56;;;;;;;;;;;15.70;88.20;;;;;;4042576;29;20278;-53
2023/11/13 15:33:37;;;;;;;;;;;15.70;89.20;;;;;;4014069;29;19939;-49
2023/11/13 15:36:20;;;;;;;;;;;15.70;88.30;;;;;;4007975;29;20707;-51
2023/11/13 15:39:06;;;;;;;;;;;15.70;88.30;;;;;;4005391;29;19935;-51
2023/11/13 15:41:47;;;;;;;;;;;15.60;88.40;;;;;;4012797;29;19944;-43